aviador You're here:

KLEW Decoded Metar

AUBURN/LEWISTON in ME, USA
Report Time2017-08-18 09:56:00
UTC Time2017-08-18 10:48:06
Flight Rules vfr VFR
WindCalm
Visibility9999 m
Phenomena:N/A
Clouds:N/A
Expected CloudBase > 400 ft AGL from Temp-Dew spread
CeilingNone
Temp13°C (ISA -1)
Dew Point12°C (94% RH)
QNH1016 hPa
Density Alt207 ft
Elevation289 ft
Report Wrong Elevation
Raw Report
METAR KLEW 180956Z AUTO 00000KT 10SM CLR 13/12 A2999 RMK AO2 SLP168
T01330122 PNO $=

Extra information for KLEW:More info

Metar Taf Metar & Taf Last 4 Metars F.Rules Stats Wind Profile Meteogram Temp Stats Airport Information Weather charts Add Link Nearby VenuesMetar ALERT Operation Metar Decoded Social comments

AIRNAV info for KLEW